Amunt
Inicio > meteoXarxa
Fes-te'n soci

METEOXARXA

Benicàssim
Ubicació centre
Comarca la Plana Alta
Altitud (msnm) 18
Posició geogràfica 40° 3' 22.00" N, 00° 3' 56.00" E
Model Davis Vantage VUE
Presa de dades
Font de les dades Eduardo Abión Cumba
Estadístiques. Resum
Data Temperatura (ºC) Humitat (%) Pressió (hPa) Vent (km/h) Precipit. (mm)
Mínima Mitjana Màxima Mínima Mitjana Màxima Mínima Mitjana Màxima Predom. Mitjana Ràfega màxima Total Dies de pluja
Mínima Mitjana Màxima Mínima Mitjana Màxima
Últimes dades diàries
09-01-2017 6,3     10,5     15,4 NW 0,8 11,3 0,0  
08-01-2017 6,1     9,9     15,3 NW 0,5 8,0 0,0  
07-01-2017 7,3     10,7     13,7 SE 1,0 14,5 0,0  
06-01-2017 6,4     10,3     13,8 E 0,8 14,5 0,0  
05-01-2017 8,6     11,9     16,3 NW 1,1 14,5 0,0  
04-01-2017 8,9     11,4     14,9 NW 0,6 9,7 0,2  
03-01-2017 7,1     10,8     14,1 NW 0,5 8,0 0,0  
02-01-2017 7,2     9,9     13,4 NW 0,2 8,0 0,0  
01-01-2017 6,4     9,9     16,2 ESE 0,5 9,7 0,0  
31-12-2016 8,3     10,7     14,3 NW 0,6 8,0 0,0  
30-12-2016 6,6     10,8     15,7 NW 0,5 11,3 0,0  
29-12-2016 5,9     9,7     14,6 E 1,1 16,1 0,0  
28-12-2016 8,6     11,6     17,1 NW 1,0 19,3 0,0  
27-12-2016 8,7     11,4     15,7 NW 0,5 6,4 0,2  
26-12-2016 8,4     11,6     17,0 NW 0,6 9,7 0,0  
25-12-2016 8,9     12,2     17,6 ESE 0,3 6,4 0,0  
24-12-2016 10,0     13,4     18,6 NW 0,5 9,7 0,0  
23-12-2016 9,3     12,7     18,7 NW 0,2 6,4 0,0  
22-12-2016 11,6     14,1     18,7 NW 0,6 16,1 0,0  
21-12-2016 11,9     14,2     18,2 NW 3,2 33,8 0,0  
20-12-2016 11,4     13,9     18,0 NW 8,0 45,1 0,2  
19-12-2016 8,9     10,6     12,6 W 6,6 40,2 29,6  
18-12-2016 10,0     12,3     11,1 W 4,0 25,7 7,6  
17-12-2016 11,7     15,0     13,3 W 3,9 32,2 36,6  
16-12-2016 10,9     13,3     15,8 E 1,9 22,5 41,6  
15-12-2016 9,7     12,4     15,4 E 0,5 16,1 0,0  
14-12-2016 9,6     12,2     16,2 ESE 0,6 8,0 0,0  
13-12-2016 9,2     12,3     17,6 NW 0,5 9,7 0,2  
12-12-2016 8,9     12,1     15,9 NW 0,5 8,0 0,2  
11-12-2016 10,9     13,5     17,3 NW 0,6 9,7 0,0  
10-12-2016 10,3     14,2     18,6 NW 0,5 8,0 0,0  
09-12-2016 9,8     13,2     18,1 NW 0,3 8,0 0,0  
Dades del mes en curs (actualitzades fins l'últim dia disponible)
01/2017 6,1 7,1 8,9 10,6 13,4 14,8 16,3   0,7 14,5 0,2  
Últimes dades mensuals
12/2016 5,9 10,0 15,1 12,8 11,1 16,7 19,6 1,5 45,1 123,0 10
11/2016 6,8 12,2 17,1 15,5 13,7 19,1 26,1 1,8 59,5 108,8 12
10/2016 13,9 18,0 21,1 20,7 19,6 23,8 27,1 1,3 29,0 22,0 7
09/2016 16,8 20,8 24,9 24,2 24,2 27,8 32,2 2,2 49,9 35,0 4
08/2016 18,8 22,6 24,4 25,7 26,2 28,7 31,2 2,4 29,0 20,4 5
07/2016 20,2 22,9 24,6 25,9 25,4 28,8 31,5 2,7 33,8 0,0 0
06/2016 15,9 19,8 23,5 23,0 23,1 26,4 32,9 2,9 46,7 1,4 1
05/2016 10,6 15,2 18,5 18,4 17,4 21,8 29,5 2,5 54,7 29,2 9
04/2016 8,5 12,8 15,4 16,1 15,3 20,1 27,8 2,6 53,1 32,8 9
03/2016 6,2 10,3 13,1 13,6 12,4 17,7 24,7 2,9 51,5 31,2 5
02/2016 3,8 9,7 15,8 13,5 12,8 18,0 25,9 3,2 70,8 4,6 5
01/2016 6,7 10,3 14,7 13,5 14,1 17,5 23,1 2,0 49,9 0,8 2
12/2015 9,1 11,0 14,2 13,9 15,6 17,5 20,9 0,7 17,7 1,0 4
Dades de l'any en curs (actualitzades fins l'últim dia disponible)
2017 6,1 7,1 8,9 10,6 13,4 14,8 16,3   0,7 14,5 0,2  
Últimes dades anuals
2015 2,6 15,3 22,6 18,7 20,9 22,5 34,8 2,6 83,7 450,6 69